Pallada — UDUI — position and weather

sailwx.info

Track history (hours):
 
Tides and Currents Weather Stations Pressure Air Temp Water Temp Dewpoint Dewpoint Depression Visibility Wind Speed Wind Dir Waves Ship Positions

Pallada

Last reported at 2015-May-28 10:33 UTC. Time now 2015-May-28 16:02 UTC.
Position N 38°50' E 121°47'.

Length 109 m; draft 6.7 m.

Type: Sailing vessel. MMSI: 273815200.

Date/timePositionNaut miles runAvg speedWind from/ knotsBaromVisibWave heightAir tempDewpointWater temp
2015-May-28 10:33N 38°50' E 121°47'  
2015-May-25 02:04N 38°52' E 121°47'3 4.9
2015-May-25 01:32N 38°50' E 121°49'32 3.9
2015-May-24 17:24N 38°33' E 122°23'0 0.0
2015-May-24 12:27N 38°33' E 122°23'0 0.0
2015-May-24 11:33N 38°33' E 122°23'0 0.0
2015-May-24 10:33N 38°33' E 122°23'0 0.0
2015-May-24 02:27N 38°33' E 122°23'0 0.0
2015-May-23 22:06N 38°33' E 122°23'0 0.0
2015-May-23 21:30N 38°33' E 122°23'0 0.0
2015-May-23 20:24N 38°33' E 122°23'0 0.0
2015-May-23 19:30N 38°33' E 122°23'0 0.0
2015-May-23 17:30N 38°33' E 122°23'0 0.0
2015-May-22 12:29N 38°33' E 122°23'  
2015-May-20 02:10N 34°10' E 125°26'6 8.8
2015-May-20 01:27N 34°07' E 125°32'37 7.1
2015-May-19 20:17N 34°07' E 126°16'  
Track history (hours):
 
Tides and Currents Weather Stations Pressure Air Temp Water Temp Dewpoint Dewpoint Depression Visibility Wind Speed Wind Dir Waves Ship Positions

Pallada

Last reported at 2015-May-28 10:33 UTC. Time now 2015-May-28 16:02 UTC.
Position N 38°50' E 121°47'.

Length 109 m; draft 6.7 m.

Type: Sailing vessel. MMSI: 273815200.

Date/timePositionNaut miles runAvg speedWind from/ knotsBaromVisibWave heightAir tempDewpointWater temp
2015-May-28 10:33N 38°50' E 121°47'  
2015-May-25 02:04N 38°52' E 121°47'3 4.9
2015-May-25 01:32N 38°50' E 121°49'32 3.9
2015-May-24 17:24N 38°33' E 122°23'0 0.0
2015-May-24 12:27N 38°33' E 122°23'0 0.0
2015-May-24 11:33N 38°33' E 122°23'0 0.0
2015-May-24 10:33N 38°33' E 122°23'0 0.0
2015-May-24 02:27N 38°33' E 122°23'0 0.0
2015-May-23 22:06N 38°33' E 122°23'0 0.0
2015-May-23 21:30N 38°33' E 122°23'0 0.0
2015-May-23 20:24N 38°33' E 122°23'0 0.0
2015-May-23 19:30N 38°33' E 122°23'0 0.0
2015-May-23 17:30N 38°33' E 122°23'0 0.0
2015-May-22 12:29N 38°33' E 122°23'  
2015-May-20 02:10N 34°10' E 125°26'6 8.8
2015-May-20 01:27N 34°07' E 125°32'37 7.1
2015-May-19 20:17N 34°07' E 126°16'  

Dump ship's entire track history